sensor_id;sensor_type;location;lat;lon;timestamp;P1;durP1;ratioP1;P2;durP2;ratioP2
10677;SDS011;5387;48.722;9.110;2024-02-26T00:01:48;2.13;;;1.93;;
10677;SDS011;5387;48.722;9.110;2024-02-26T00:04:15;2.23;;;2.03;;
10677;SDS011;5387;48.722;9.110;2024-02-26T00:06:42;2.10;;;1.87;;
10677;SDS011;5387;48.722;9.110;2024-02-26T00:09:09;2.50;;;1.97;;
10677;SDS011;5387;48.722;9.110;2024-02-26T00:11:36;2.80;;;2.13;;
10677;SDS011;5387;48.722;9.110;2024-02-26T00:14:03;3.33;;;1.97;;
10677;SDS011;5387;48.722;9.110;2024-02-26T00:16:31;2.73;;;2.00;;
10677;SDS011;5387;48.722;9.110;2024-02-26T00:18:59;2.07;;;1.87;;
10677;SDS011;5387;48.722;9.110;2024-02-26T00:21:26;2.83;;;2.10;;
10677;SDS011;5387;48.722;9.110;2024-02-26T00:23:53;1.77;;;1.67;;
10677;SDS011;5387;48.722;9.110;2024-02-26T00:26:19;2.60;;;1.90;;
10677;SDS011;5387;48.722;9.110;2024-02-26T00:28:46;1.77;;;1.63;;
10677;SDS011;5387;48.722;9.110;2024-02-26T00:31:13;2.63;;;1.83;;
10677;SDS011;5387;48.722;9.110;2024-02-26T00:33:39;2.00;;;1.90;;
10677;SDS011;5387;48.722;9.110;2024-02-26T00:36:07;5.50;;;2.20;;
10677;SDS011;5387;48.722;9.110;2024-02-26T00:38:34;2.10;;;1.90;;
10677;SDS011;5387;48.722;9.110;2024-02-26T00:41:01;2.97;;;1.97;;
10677;SDS011;5387;48.722;9.110;2024-02-26T00:43:28;2.07;;;1.63;;
10677;SDS011;5387;48.722;9.110;2024-02-26T00:45:55;2.67;;;1.97;;
10677;SDS011;5387;48.722;9.110;2024-02-26T00:48:22;1.97;;;1.77;;
10677;SDS011;5387;48.722;9.110;2024-02-26T00:50:50;2.70;;;1.97;;
10677;SDS011;5387;48.722;9.110;2024-02-26T00:53:18;5.37;;;2.17;;
10677;SDS011;5387;48.722;9.110;2024-02-26T00:55:45;2.70;;;1.90;;
10677;SDS011;5387;48.722;9.110;2024-02-26T00:58:12;4.40;;;2.30;;
10677;SDS011;5387;48.722;9.110;2024-02-26T01:00:39;2.23;;;1.63;;
10677;SDS011;5387;48.722;9.110;2024-02-26T01:03:06;3.00;;;1.70;;
10677;SDS011;5387;48.722;9.110;2024-02-26T01:05:32;1.67;;;1.57;;
10677;SDS011;5387;48.722;9.110;2024-02-26T01:07:59;20.57;;;9.53;;
10677;SDS011;5387;48.722;9.110;2024-02-26T01:10:27;21.43;;;9.13;;
10677;SDS011;5387;48.722;9.110;2024-02-26T01:12:54;8.13;;;4.30;;
10677;SDS011;5387;48.722;9.110;2024-02-26T01:15:21;6.33;;;4.20;;
10677;SDS011;5387;48.722;9.110;2024-02-26T01:17:48;7.07;;;2.60;;
10677;SDS011;5387;48.722;9.110;2024-02-26T01:20:15;4.10;;;3.10;;
10677;SDS011;5387;48.722;9.110;2024-02-26T01:22:42;2.63;;;2.13;;
10677;SDS011;5387;48.722;9.110;2024-02-26T01:25:09;3.23;;;2.20;;
10677;SDS011;5387;48.722;9.110;2024-02-26T01:27:38;2.63;;;1.90;;
10677;SDS011;5387;48.722;9.110;2024-02-26T01:30:06;6.40;;;2.00;;
10677;SDS011;5387;48.722;9.110;2024-02-26T01:32:34;3.20;;;2.00;;
10677;SDS011;5387;48.722;9.110;2024-02-26T01:35:01;2.30;;;2.10;;
10677;SDS011;5387;48.722;9.110;2024-02-26T01:37:30;2.33;;;2.10;;
10677;SDS011;5387;48.722;9.110;2024-02-26T01:39:57;2.73;;;1.90;;
10677;SDS011;5387;48.722;9.110;2024-02-26T01:42:23;3.07;;;2.20;;
10677;SDS011;5387;48.722;9.110;2024-02-26T01:44:51;3.23;;;2.17;;
10677;SDS011;5387;48.722;9.110;2024-02-26T01:47:18;2.00;;;1.70;;
10677;SDS011;5387;48.722;9.110;2024-02-26T01:49:45;1.33;;;1.30;;
10677;SDS011;5387;48.722;9.110;2024-02-26T01:52:12;3.20;;;1.60;;
10677;SDS011;5387;48.722;9.110;2024-02-26T01:54:39;1.47;;;1.37;;
10677;SDS011;5387;48.722;9.110;2024-02-26T01:57:08;1.60;;;1.40;;
10677;SDS011;5387;48.722;9.110;2024-02-26T01:59:35;1.10;;;1.10;;
10677;SDS011;5387;48.722;9.110;2024-02-26T02:02:05;1.13;;;1.13;;
10677;SDS011;5387;48.722;9.110;2024-02-26T02:04:34;1.10;;;1.10;;
10677;SDS011;5387;48.722;9.110;2024-02-26T02:07:02;1.43;;;1.20;;
10677;SDS011;5387;48.722;9.110;2024-02-26T02:09:29;1.30;;;1.20;;
10677;SDS011;5387;48.722;9.110;2024-02-26T02:11:56;1.30;;;1.20;;
10677;SDS011;5387;48.722;9.110;2024-02-26T02:14:24;1.93;;;1.20;;
10677;SDS011;5387;48.722;9.110;2024-02-26T02:16:51;14.27;;;6.20;;
10677;SDS011;5387;48.722;9.110;2024-02-26T02:19:20;2.50;;;1.60;;
10677;SDS011;5387;48.722;9.110;2024-02-26T02:21:48;1.37;;;1.23;;
10677;SDS011;5387;48.722;9.110;2024-02-26T02:24:15;1.10;;;1.10;;
10677;SDS011;5387;48.722;9.110;2024-02-26T02:26:41;1.10;;;1.10;;
10677;SDS011;5387;48.722;9.110;2024-02-26T02:29:08;2.13;;;1.40;;
10677;SDS011;5387;48.722;9.110;2024-02-26T02:31:35;1.53;;;1.30;;
10677;SDS011;5387;48.722;9.110;2024-02-26T02:34:02;1.00;;;1.00;;
10677;SDS011;5387;48.722;9.110;2024-02-26T02:36:29;1.23;;;1.23;;
10677;SDS011;5387;48.722;9.110;2024-02-26T02:38:57;1.37;;;1.27;;
10677;SDS011;5387;48.722;9.110;2024-02-26T02:41:24;0.97;;;0.97;;
10677;SDS011;5387;48.722;9.110;2024-02-26T02:43:51;1.27;;;1.17;;
10677;SDS011;5387;48.722;9.110;2024-02-26T02:46:18;1.50;;;1.40;;
10677;SDS011;5387;48.722;9.110;2024-02-26T02:48:46;1.07;;;1.07;;
10677;SDS011;5387;48.722;9.110;2024-02-26T02:51:12;1.10;;;1.10;;
10677;SDS011;5387;48.722;9.110;2024-02-26T02:53:39;1.00;;;1.00;;
10677;SDS011;5387;48.722;9.110;2024-02-26T02:56:07;2.20;;;1.20;;
10677;SDS011;5387;48.722;9.110;2024-02-26T02:58:34;1.00;;;1.00;;
10677;SDS011;5387;48.722;9.110;2024-02-26T03:01:01;1.00;;;1.00;;
10677;SDS011;5387;48.722;9.110;2024-02-26T03:03:28;1.00;;;1.00;;
10677;SDS011;5387;48.722;9.110;2024-02-26T03:05:55;1.10;;;1.10;;
10677;SDS011;5387;48.722;9.110;2024-02-26T03:08:22;1.40;;;1.00;;
10677;SDS011;5387;48.722;9.110;2024-02-26T03:10:49;1.47;;;1.37;;
10677;SDS011;5387;48.722;9.110;2024-02-26T03:13:17;0.90;;;0.90;;
10677;SDS011;5387;48.722;9.110;2024-02-26T03:15:44;0.90;;;0.90;;
10677;SDS011;5387;48.722;9.110;2024-02-26T03:18:10;1.93;;;1.83;;
10677;SDS011;5387;48.722;9.110;2024-02-26T03:20:37;0.90;;;0.90;;
10677;SDS011;5387;48.722;9.110;2024-02-26T03:23:04;0.93;;;0.93;;
10677;SDS011;5387;48.722;9.110;2024-02-26T03:25:31;0.80;;;0.80;;
10677;SDS011;5387;48.722;9.110;2024-02-26T03:27:57;1.10;;;1.00;;
10677;SDS011;5387;48.722;9.110;2024-02-26T03:30:26;0.90;;;0.90;;
10677;SDS011;5387;48.722;9.110;2024-02-26T03:32:52;1.10;;;1.10;;
10677;SDS011;5387;48.722;9.110;2024-02-26T03:35:19;0.90;;;0.90;;
10677;SDS011;5387;48.722;9.110;2024-02-26T03:37:46;1.70;;;0.87;;
10677;SDS011;5387;48.722;9.110;2024-02-26T03:40:15;1.00;;;1.00;;
10677;SDS011;5387;48.722;9.110;2024-02-26T03:42:44;0.90;;;0.90;;
10677;SDS011;5387;48.722;9.110;2024-02-26T03:45:11;1.57;;;1.20;;
10677;SDS011;5387;48.722;9.110;2024-02-26T03:47:39;1.00;;;1.00;;
10677;SDS011;5387;48.722;9.110;2024-02-26T03:50:06;0.90;;;0.90;;
10677;SDS011;5387;48.722;9.110;2024-02-26T03:52:33;0.80;;;0.80;;
10677;SDS011;5387;48.722;9.110;2024-02-26T03:54:59;0.90;;;0.90;;
10677;SDS011;5387;48.722;9.110;2024-02-26T03:57:26;0.80;;;0.80;;
10677;SDS011;5387;48.722;9.110;2024-02-26T03:59:53;1.33;;;0.90;;
10677;SDS011;5387;48.722;9.110;2024-02-26T04:02:20;1.20;;;1.20;;
10677;SDS011;5387;48.722;9.110;2024-02-26T04:04:49;1.03;;;1.00;;
10677;SDS011;5387;48.722;9.110;2024-02-26T04:07:16;0.90;;;0.90;;
10677;SDS011;5387;48.722;9.110;2024-02-26T04:09:42;1.00;;;1.00;;
10677;SDS011;5387;48.722;9.110;2024-02-26T04:12:09;1.10;;;1.10;;
10677;SDS011;5387;48.722;9.110;2024-02-26T04:14:36;0.90;;;0.90;;
10677;SDS011;5387;48.722;9.110;2024-02-26T04:17:03;1.27;;;1.17;;
10677;SDS011;5387;48.722;9.110;2024-02-26T04:19:30;0.70;;;0.70;;
10677;SDS011;5387;48.722;9.110;2024-02-26T04:21:58;0.90;;;0.90;;
10677;SDS011;5387;48.722;9.110;2024-02-26T04:24:25;1.10;;;1.10;;
10677;SDS011;5387;48.722;9.110;2024-02-26T04:26:52;1.30;;;1.20;;
10677;SDS011;5387;48.722;9.110;2024-02-26T04:29:19;0.97;;;0.97;;
10677;SDS011;5387;48.722;9.110;2024-02-26T04:31:46;1.10;;;1.10;;
10677;SDS011;5387;48.722;9.110;2024-02-26T04:34:13;1.20;;;1.20;;
10677;SDS011;5387;48.722;9.110;2024-02-26T04:36:39;5.93;;;1.83;;
10677;SDS011;5387;48.722;9.110;2024-02-26T04:39:08;1.93;;;1.50;;
10677;SDS011;5387;48.722;9.110;2024-02-26T04:41:35;1.60;;;1.50;;
10677;SDS011;5387;48.722;9.110;2024-02-26T04:44:01;2.27;;;1.90;;
10677;SDS011;5387;48.722;9.110;2024-02-26T04:46:28;2.47;;;1.63;;
10677;SDS011;5387;48.722;9.110;2024-02-26T04:48:55;1.77;;;1.67;;
10677;SDS011;5387;48.722;9.110;2024-02-26T04:51:22;1.87;;;1.77;;
10677;SDS011;5387;48.722;9.110;2024-02-26T04:53:48;4.53;;;1.90;;
10677;SDS011;5387;48.722;9.110;2024-02-26T04:56:17;1.50;;;1.50;;
10677;SDS011;5387;48.722;9.110;2024-02-26T04:58:43;2.13;;;1.90;;
10677;SDS011;5387;48.722;9.110;2024-02-26T05:01:10;1.70;;;1.60;;
10677;SDS011;5387;48.722;9.110;2024-02-26T05:03:37;1.90;;;1.70;;
10677;SDS011;5387;48.722;9.110;2024-02-26T05:06:04;3.13;;;2.03;;
10677;SDS011;5387;48.722;9.110;2024-02-26T05:08:31;2.00;;;1.63;;
10677;SDS011;5387;48.722;9.110;2024-02-26T05:10:58;3.57;;;2.00;;
10677;SDS011;5387;48.722;9.110;2024-02-26T05:13:29;2.37;;;1.80;;
10677;SDS011;5387;48.722;9.110;2024-02-26T05:15:55;6.77;;;1.80;;
10677;SDS011;5387;48.722;9.110;2024-02-26T05:18:22;1.80;;;1.70;;
10677;SDS011;5387;48.722;9.110;2024-02-26T05:20:49;2.73;;;2.53;;
10677;SDS011;5387;48.722;9.110;2024-02-26T05:23:16;2.00;;;1.90;;
10677;SDS011;5387;48.722;9.110;2024-02-26T05:25:42;2.20;;;1.83;;
10677;SDS011;5387;48.722;9.110;2024-02-26T05:28:12;2.10;;;2.00;;
10677;SDS011;5387;48.722;9.110;2024-02-26T05:30:41;1.70;;;1.60;;
10677;SDS011;5387;48.722;9.110;2024-02-26T05:33:08;2.17;;;2.03;;
10677;SDS011;5387;48.722;9.110;2024-02-26T05:35:35;2.13;;;1.93;;
10677;SDS011;5387;48.722;9.110;2024-02-26T05:38:02;2.30;;;2.10;;
10677;SDS011;5387;48.722;9.110;2024-02-26T05:40:29;2.10;;;1.73;;
10677;SDS011;5387;48.722;9.110;2024-02-26T05:42:56;2.20;;;2.00;;
10677;SDS011;5387;48.722;9.110;2024-02-26T05:45:23;5.80;;;1.90;;
10677;SDS011;5387;48.722;9.110;2024-02-26T05:47:51;3.87;;;1.87;;
10677;SDS011;5387;48.722;9.110;2024-02-26T05:50:18;2.90;;;1.93;;
10677;SDS011;5387;48.722;9.110;2024-02-26T05:52:45;1.83;;;1.50;;
10677;SDS011;5387;48.722;9.110;2024-02-26T05:55:11;2.53;;;1.70;;
10677;SDS011;5387;48.722;9.110;2024-02-26T05:57:38;1.70;;;1.60;;
10677;SDS011;5387;48.722;9.110;2024-02-26T06:00:06;2.83;;;1.70;;
10677;SDS011;5387;48.722;9.110;2024-02-26T06:02:33;1.70;;;1.60;;
10677;SDS011;5387;48.722;9.110;2024-02-26T06:05:01;4.00;;;1.90;;
10677;SDS011;5387;48.722;9.110;2024-02-26T06:07:28;1.80;;;1.70;;
10677;SDS011;5387;48.722;9.110;2024-02-26T06:09:55;2.07;;;1.90;;
10677;SDS011;5387;48.722;9.110;2024-02-26T06:12:22;2.13;;;1.93;;
10677;SDS011;5387;48.722;9.110;2024-02-26T06:14:49;3.67;;;1.90;;
10677;SDS011;5387;48.722;9.110;2024-02-26T06:17:16;3.10;;;1.80;;
10677;SDS011;5387;48.722;9.110;2024-02-26T06:19:42;2.37;;;1.60;;
10677;SDS011;5387;48.722;9.110;2024-02-26T06:22:10;3.80;;;1.90;;
10677;SDS011;5387;48.722;9.110;2024-02-26T06:24:37;2.33;;;2.10;;
10677;SDS011;5387;48.722;9.110;2024-02-26T06:27:04;2.37;;;2.20;;
10677;SDS011;5387;48.722;9.110;2024-02-26T06:29:31;2.13;;;1.97;;
10677;SDS011;5387;48.722;9.110;2024-02-26T06:31:58;1.80;;;1.70;;
10677;SDS011;5387;48.722;9.110;2024-02-26T06:34:25;1.93;;;1.83;;
10677;SDS011;5387;48.722;9.110;2024-02-26T06:36:51;2.93;;;1.73;;
10677;SDS011;5387;48.722;9.110;2024-02-26T06:39:20;2.57;;;2.00;;
10677;SDS011;5387;48.722;9.110;2024-02-26T06:41:46;2.33;;;1.57;;
10677;SDS011;5387;48.722;9.110;2024-02-26T06:44:13;4.13;;;2.20;;
10677;SDS011;5387;48.722;9.110;2024-02-26T06:46:40;2.13;;;2.03;;
10677;SDS011;5387;48.722;9.110;2024-02-26T06:49:07;3.47;;;2.07;;
10677;SDS011;5387;48.722;9.110;2024-02-26T06:51:33;2.47;;;2.27;;
10677;SDS011;5387;48.722;9.110;2024-02-26T06:54:00;2.20;;;2.00;;
10677;SDS011;5387;48.722;9.110;2024-02-26T06:56:29;3.97;;;1.80;;
10677;SDS011;5387;48.722;9.110;2024-02-26T06:58:55;2.23;;;2.03;;
10677;SDS011;5387;48.722;9.110;2024-02-26T07:01:22;1.70;;;1.60;;
10677;SDS011;5387;48.722;9.110;2024-02-26T07:03:49;3.00;;;2.43;;
10677;SDS011;5387;48.722;9.110;2024-02-26T07:06:16;1.93;;;1.60;;
10677;SDS011;5387;48.722;9.110;2024-02-26T07:08:42;1.60;;;1.50;;
10677;SDS011;5387;48.722;9.110;2024-02-26T07:11:10;1.70;;;1.60;;
10677;SDS011;5387;48.722;9.110;2024-02-26T07:13:38;1.47;;;1.40;;
10677;SDS011;5387;48.722;9.110;2024-02-26T07:16:05;1.97;;;1.80;;
10677;SDS011;5387;48.722;9.110;2024-02-26T07:18:35;3.13;;;2.10;;
10677;SDS011;5387;48.722;9.110;2024-02-26T07:21:01;2.50;;;1.87;;
10677;SDS011;5387;48.722;9.110;2024-02-26T07:23:28;2.43;;;2.00;;
10677;SDS011;5387;48.722;9.110;2024-02-26T07:25:55;2.17;;;1.83;;
10677;SDS011;5387;48.722;9.110;2024-02-26T07:28:22;2.70;;;2.50;;
10677;SDS011;5387;48.722;9.110;2024-02-26T07:30:51;7.00;;;4.33;;
10677;SDS011;5387;48.722;9.110;2024-02-26T07:33:18;7.77;;;4.80;;
10677;SDS011;5387;48.722;9.110;2024-02-26T07:35:47;10.43;;;5.93;;
10677;SDS011;5387;48.722;9.110;2024-02-26T07:38:14;8.90;;;4.60;;
10677;SDS011;5387;48.722;9.110;2024-02-26T07:40:41;4.50;;;3.30;;
10677;SDS011;5387;48.722;9.110;2024-02-26T07:43:07;6.30;;;3.90;;
10677;SDS011;5387;48.722;9.110;2024-02-26T07:45:34;9.40;;;4.90;;
10677;SDS011;5387;48.722;9.110;2024-02-26T07:48:03;9.97;;;5.23;;
10677;SDS011;5387;48.722;9.110;2024-02-26T07:50:30;8.40;;;4.93;;
10677;SDS011;5387;48.722;9.110;2024-02-26T07:52:56;5.47;;;3.77;;
10677;SDS011;5387;48.722;9.110;2024-02-26T07:55:23;4.27;;;2.63;;
10677;SDS011;5387;48.722;9.110;2024-02-26T07:57:55;5.40;;;2.53;;
10677;SDS011;5387;48.722;9.110;2024-02-26T08:00:21;2.40;;;2.13;;
10677;SDS011;5387;48.722;9.110;2024-02-26T08:02:48;2.17;;;1.70;;
10677;SDS011;5387;48.722;9.110;2024-02-26T08:05:17;1.77;;;1.50;;
10677;SDS011;5387;48.722;9.110;2024-02-26T08:07:44;2.27;;;1.60;;
10677;SDS011;5387;48.722;9.110;2024-02-26T08:10:13;1.87;;;1.63;;
10677;SDS011;5387;48.722;9.110;2024-02-26T08:12:40;1.83;;;1.40;;
10677;SDS011;5387;48.722;9.110;2024-02-26T08:15:08;1.30;;;1.20;;
10677;SDS011;5387;48.722;9.110;2024-02-26T08:17:35;2.03;;;1.50;;
10677;SDS011;5387;48.722;9.110;2024-02-26T08:20:02;4.67;;;1.60;;
10677;SDS011;5387;48.722;9.110;2024-02-26T08:22:31;2.30;;;2.10;;
10677;SDS011;5387;48.722;9.110;2024-02-26T08:24:58;2.37;;;1.97;;
10677;SDS011;5387;48.722;9.110;2024-02-26T08:27:30;1.97;;;1.77;;
10677;SDS011;5387;48.722;9.110;2024-02-26T08:29:57;2.37;;;2.03;;
10677;SDS011;5387;48.722;9.110;2024-02-26T08:32:23;3.93;;;2.23;;
10677;SDS011;5387;48.722;9.110;2024-02-26T08:34:50;2.70;;;2.03;;
10677;SDS011;5387;48.722;9.110;2024-02-26T08:37:17;3.37;;;2.20;;
10677;SDS011;5387;48.722;9.110;2024-02-26T08:39:45;3.77;;;2.03;;
10677;SDS011;5387;48.722;9.110;2024-02-26T08:42:12;3.73;;;2.47;;
10677;SDS011;5387;48.722;9.110;2024-02-26T08:44:38;2.13;;;1.90;;
10677;SDS011;5387;48.722;9.110;2024-02-26T08:47:05;1.70;;;1.60;;
10677;SDS011;5387;48.722;9.110;2024-02-26T08:49:32;7.83;;;2.27;;
10677;SDS011;5387;48.722;9.110;2024-02-26T08:52:00;4.27;;;2.13;;
10677;SDS011;5387;48.722;9.110;2024-02-26T08:54:27;3.93;;;2.30;;
10677;SDS011;5387;48.722;9.110;2024-02-26T08:56:55;2.20;;;1.93;;
10677;SDS011;5387;48.722;9.110;2024-02-26T08:59:22;2.10;;;1.83;;
10677;SDS011;5387;48.722;9.110;2024-02-26T09:01:49;4.03;;;2.00;;
10677;SDS011;5387;48.722;9.110;2024-02-26T09:04:16;3.10;;;2.00;;
10677;SDS011;5387;48.722;9.110;2024-02-26T09:06:42;2.53;;;2.30;;
10677;SDS011;5387;48.722;9.110;2024-02-26T09:09:09;5.97;;;2.17;;
10677;SDS011;5387;48.722;9.110;2024-02-26T09:11:37;1.90;;;1.73;;
10677;SDS011;5387;48.722;9.110;2024-02-26T09:14:05;3.10;;;1.90;;
10677;SDS011;5387;48.722;9.110;2024-02-26T09:16:32;2.67;;;2.10;;
10677;SDS011;5387;48.722;9.110;2024-02-26T09:18:59;8.37;;;2.07;;
10677;SDS011;5387;48.722;9.110;2024-02-26T09:21:25;2.50;;;1.90;;
10677;SDS011;5387;48.722;9.110;2024-02-26T09:23:52;2.20;;;2.00;;
10677;SDS011;5387;48.722;9.110;2024-02-26T09:26:20;6.43;;;1.83;;
10677;SDS011;5387;48.722;9.110;2024-02-26T09:28:46;2.33;;;1.80;;
10677;SDS011;5387;48.722;9.110;2024-02-26T09:31:15;2.00;;;1.80;;
10677;SDS011;5387;48.722;9.110;2024-02-26T09:33:43;2.30;;;1.87;;
10677;SDS011;5387;48.722;9.110;2024-02-26T09:36:10;2.10;;;1.90;;
10677;SDS011;5387;48.722;9.110;2024-02-26T09:38:37;4.07;;;1.90;;
10677;SDS011;5387;48.722;9.110;2024-02-26T09:41:05;2.97;;;1.60;;
10677;SDS011;5387;48.722;9.110;2024-02-26T09:43:33;2.10;;;1.60;;
10677;SDS011;5387;48.722;9.110;2024-02-26T09:46:01;6.17;;;2.07;;
10677;SDS011;5387;48.722;9.110;2024-02-26T09:48:30;2.60;;;1.80;;
10677;SDS011;5387;48.722;9.110;2024-02-26T09:50:58;2.23;;;2.03;;
10677;SDS011;5387;48.722;9.110;2024-02-26T09:53:27;5.67;;;2.30;;
10677;SDS011;5387;48.722;9.110;2024-02-26T09:55:56;3.47;;;2.40;;
10677;SDS011;5387;48.722;9.110;2024-02-26T09:58:24;11.77;;;2.90;;
10677;SDS011;5387;48.722;9.110;2024-02-26T10:00:53;2.63;;;2.07;;
10677;SDS011;5387;48.722;9.110;2024-02-26T10:03:24;4.27;;;1.97;;
10677;SDS011;5387;48.722;9.110;2024-02-26T10:05:55;4.60;;;1.90;;
10677;SDS011;5387;48.722;9.110;2024-02-26T10:08:23;3.43;;;1.80;;
10677;SDS011;5387;48.722;9.110;2024-02-26T10:10:50;2.17;;;1.40;;
10677;SDS011;5387;48.722;9.110;2024-02-26T10:13:19;2.30;;;1.50;;
10677;SDS011;5387;48.722;9.110;2024-02-26T10:15:45;2.90;;;2.07;;
10677;SDS011;5387;48.722;9.110;2024-02-26T10:18:12;6.07;;;1.67;;
10677;SDS011;5387;48.722;9.110;2024-02-26T10:20:39;2.70;;;1.53;;
10677;SDS011;5387;48.722;9.110;2024-02-26T10:23:07;2.20;;;1.30;;
10677;SDS011;5387;48.722;9.110;2024-02-26T10:25:34;2.70;;;1.90;;
10677;SDS011;5387;48.722;9.110;2024-02-26T10:28:01;3.43;;;1.60;;
10677;SDS011;5387;48.722;9.110;2024-02-26T10:30:28;1.57;;;1.47;;
10677;SDS011;5387;48.722;9.110;2024-02-26T10:32:55;4.33;;;1.60;;
10677;SDS011;5387;48.722;9.110;2024-02-26T10:35:23;3.40;;;1.67;;
10677;SDS011;5387;48.722;9.110;2024-02-26T10:37:50;1.87;;;1.53;;
10677;SDS011;5387;48.722;9.110;2024-02-26T10:40:19;4.03;;;1.70;;
10677;SDS011;5387;48.722;9.110;2024-02-26T10:42:45;9.17;;;2.20;;
10677;SDS011;5387;48.722;9.110;2024-02-26T10:45:12;4.97;;;2.73;;
10677;SDS011;5387;48.722;9.110;2024-02-26T10:47:40;4.67;;;2.50;;
10677;SDS011;5387;48.722;9.110;2024-02-26T10:50:07;6.17;;;2.63;;
10677;SDS011;5387;48.722;9.110;2024-02-26T10:52:36;6.50;;;2.00;;
10677;SDS011;5387;48.722;9.110;2024-02-26T10:55:03;3.67;;;2.30;;
10677;SDS011;5387;48.722;9.110;2024-02-26T10:57:34;4.70;;;2.37;;
10677;SDS011;5387;48.722;9.110;2024-02-26T11:00:04;3.00;;;2.10;;
10677;SDS011;5387;48.722;9.110;2024-02-26T11:02:33;3.03;;;2.20;;
10677;SDS011;5387;48.722;9.110;2024-02-26T11:05:01;6.27;;;2.27;;
10677;SDS011;5387;48.722;9.110;2024-02-26T11:07:29;2.30;;;2.10;;
10677;SDS011;5387;48.722;9.110;2024-02-26T11:09:57;3.73;;;3.03;;
10677;SDS011;5387;48.722;9.110;2024-02-26T11:12:26;4.97;;;2.40;;
10677;SDS011;5387;48.722;9.110;2024-02-26T11:14:56;4.13;;;2.53;;
10677;SDS011;5387;48.722;9.110;2024-02-26T11:17:24;3.27;;;2.13;;
10677;SDS011;5387;48.722;9.110;2024-02-26T11:19:55;2.53;;;1.87;;
10677;SDS011;5387;48.722;9.110;2024-02-26T11:22:22;3.13;;;2.13;;
10677;SDS011;5387;48.722;9.110;2024-02-26T11:24:51;3.87;;;1.93;;
10677;SDS011;5387;48.722;9.110;2024-02-26T11:27:19;3.63;;;2.40;;
10677;SDS011;5387;48.722;9.110;2024-02-26T11:29:51;3.67;;;1.77;;
10677;SDS011;5387;48.722;9.110;2024-02-26T11:32:21;9.23;;;3.40;;
10677;SDS011;5387;48.722;9.110;2024-02-26T11:34:48;2.00;;;1.70;;
10677;SDS011;5387;48.722;9.110;2024-02-26T11:37:16;3.50;;;1.93;;
10677;SDS011;5387;48.722;9.110;2024-02-26T11:39:43;4.13;;;1.93;;
10677;SDS011;5387;48.722;9.110;2024-02-26T11:42:13;2.37;;;1.80;;
10677;SDS011;5387;48.722;9.110;2024-02-26T11:44:40;3.13;;;1.60;;
10677;SDS011;5387;48.722;9.110;2024-02-26T11:47:10;2.70;;;1.73;;
10677;SDS011;5387;48.722;9.110;2024-02-26T11:49:39;2.37;;;2.17;;
10677;SDS011;5387;48.722;9.110;2024-02-26T11:52:07;2.03;;;1.70;;
10677;SDS011;5387;48.722;9.110;2024-02-26T11:54:38;1.80;;;1.67;;
10677;SDS011;5387;48.722;9.110;2024-02-26T11:57:19;1.60;;;1.47;;
10677;SDS011;5387;48.722;9.110;2024-02-26T11:59:49;3.30;;;1.53;;
10677;SDS011;5387;48.722;9.110;2024-02-26T12:05:14;1.70;;;1.33;;
10677;SDS011;5387;48.722;9.110;2024-02-26T12:07:43;7.83;;;2.00;;
10677;SDS011;5387;48.722;9.110;2024-02-26T12:10:15;2.65;;;2.03;;
10677;SDS011;5387;48.722;9.110;2024-02-26T12:12:55;1.60;;;1.50;;
10677;SDS011;5387;48.722;9.110;2024-02-26T12:15:30;1.98;;;1.77;;
10677;SDS011;5387;48.722;9.110;2024-02-26T12:17:59;2.27;;;1.60;;
10677;SDS011;5387;48.722;9.110;2024-02-26T12:20:29;2.33;;;1.40;;
10677;SDS011;5387;48.722;9.110;2024-02-26T12:22:56;5.33;;;1.87;;
10677;SDS011;5387;48.722;9.110;2024-02-26T12:25:24;2.07;;;1.50;;
10677;SDS011;5387;48.722;9.110;2024-02-26T12:27:51;2.20;;;1.50;;
10677;SDS011;5387;48.722;9.110;2024-02-26T12:30:19;2.67;;;1.50;;
10677;SDS011;5387;48.722;9.110;2024-02-26T12:32:46;1.93;;;1.70;;
10677;SDS011;5387;48.722;9.110;2024-02-26T12:35:13;2.60;;;1.83;;
10677;SDS011;5387;48.722;9.110;2024-02-26T12:37:42;2.30;;;2.10;;
10677;SDS011;5387;48.722;9.110;2024-02-26T12:40:09;7.30;;;4.53;;
10677;SDS011;5387;48.722;9.110;2024-02-26T12:42:37;2.73;;;1.50;;
10677;SDS011;5387;48.722;9.110;2024-02-26T12:45:05;2.27;;;2.03;;
10677;SDS011;5387;48.722;9.110;2024-02-26T12:47:35;1.80;;;1.70;;
10677;SDS011;5387;48.722;9.110;2024-02-26T12:50:03;5.65;;;1.90;;
10677;SDS011;5387;48.722;9.110;2024-02-26T12:52:30;1.50;;;1.40;;
10677;SDS011;5387;48.722;9.110;2024-02-26T12:54:59;5.55;;;1.80;;
10677;SDS011;5387;48.722;9.110;2024-02-26T12:57:27;1.60;;;1.50;;
10677;SDS011;5387;48.722;9.110;2024-02-26T12:59:55;3.13;;;1.93;;
10677;SDS011;5387;48.722;9.110;2024-02-26T13:02:22;2.37;;;1.50;;
10677;SDS011;5387;48.722;9.110;2024-02-26T13:04:49;1.90;;;1.80;;
10677;SDS011;5387;48.722;9.110;2024-02-26T13:07:16;5.80;;;1.42;;
10677;SDS011;5387;48.722;9.110;2024-02-26T13:09:43;4.38;;;2.05;;
10677;SDS011;5387;48.722;9.110;2024-02-26T13:12:11;7.07;;;1.40;;
10677;SDS011;5387;48.722;9.110;2024-02-26T13:14:39;3.80;;;1.60;;
10677;SDS011;5387;48.722;9.110;2024-02-26T13:17:06;2.13;;;1.45;;
10677;SDS011;5387;48.722;9.110;2024-02-26T13:19:33;1.13;;;1.13;;
10677;SDS011;5387;48.722;9.110;2024-02-26T13:22:03;2.88;;;1.10;;
10677;SDS011;5387;48.722;9.110;2024-02-26T13:24:31;1.75;;;1.48;;
10677;SDS011;5387;48.722;9.110;2024-02-26T13:26:58;5.22;;;1.38;;
10677;SDS011;5387;48.722;9.110;2024-02-26T13:29:26;1.30;;;1.20;;
10677;SDS011;5387;48.722;9.110;2024-02-26T13:31:54;1.42;;;1.10;;
10677;SDS011;5387;48.722;9.110;2024-02-26T13:34:25;5.28;;;1.27;;
10677;SDS011;5387;48.722;9.110;2024-02-26T13:36:52;3.53;;;1.70;;
10677;SDS011;5387;48.722;9.110;2024-02-26T13:39:22;3.35;;;1.33;;
10677;SDS011;5387;48.722;9.110;2024-02-26T13:41:50;1.50;;;1.33;;
10677;SDS011;5387;48.722;9.110;2024-02-26T13:44:17;2.08;;;1.88;;
10677;SDS011;5387;48.722;9.110;2024-02-26T13:46:45;13.88;;;1.92;;
10677;SDS011;5387;48.722;9.110;2024-02-26T13:49:12;1.83;;;1.73;;
10677;SDS011;5387;48.722;9.110;2024-02-26T13:51:39;1.15;;;1.13;;
10677;SDS011;5387;48.722;9.110;2024-02-26T13:54:06;0.95;;;0.95;;
10677;SDS011;5387;48.722;9.110;2024-02-26T13:56:34;1.10;;;0.90;;
10677;SDS011;5387;48.722;9.110;2024-02-26T13:59:01;1.00;;;1.00;;
10677;SDS011;5387;48.722;9.110;2024-02-26T14:01:28;1.52;;;0.80;;
10677;SDS011;5387;48.722;9.110;2024-02-26T14:03:59;1.40;;;1.08;;
10677;SDS011;5387;48.722;9.110;2024-02-26T14:06:27;0.77;;;0.77;;
10677;SDS011;5387;48.722;9.110;2024-02-26T14:08:55;1.10;;;1.10;;
10677;SDS011;5387;48.722;9.110;2024-02-26T14:11:22;1.02;;;1.02;;
10677;SDS011;5387;48.722;9.110;2024-02-26T14:13:50;2.80;;;1.33;;
10677;SDS011;5387;48.722;9.110;2024-02-26T14:16:17;0.90;;;0.90;;
10677;SDS011;5387;48.722;9.110;2024-02-26T14:18:45;0.90;;;0.90;;
10677;SDS011;5387;48.722;9.110;2024-02-26T14:21:13;4.53;;;1.30;;
10677;SDS011;5387;48.722;9.110;2024-02-26T14:23:40;1.25;;;1.23;;
10677;SDS011;5387;48.722;9.110;2024-02-26T14:26:09;2.05;;;1.20;;
10677;SDS011;5387;48.722;9.110;2024-02-26T14:28:36;1.52;;;1.42;;
10677;SDS011;5387;48.722;9.110;2024-02-26T14:31:03;3.30;;;1.55;;
10677;SDS011;5387;48.722;9.110;2024-02-26T14:33:32;3.53;;;1.67;;
10677;SDS011;5387;48.722;9.110;2024-02-26T14:35:59;1.73;;;1.45;;
10677;SDS011;5387;48.722;9.110;2024-02-26T14:38:27;2.10;;;1.55;;
10677;SDS011;5387;48.722;9.110;2024-02-26T14:40:54;2.60;;;1.85;;
10677;SDS011;5387;48.722;9.110;2024-02-26T14:43:20;1.75;;;1.65;;
10677;SDS011;5387;48.722;9.110;2024-02-26T14:45:47;3.30;;;1.80;;
10677;SDS011;5387;48.722;9.110;2024-02-26T14:48:14;1.55;;;1.45;;
10677;SDS011;5387;48.722;9.110;2024-02-26T14:50:41;2.83;;;1.37;;
10677;SDS011;5387;48.722;9.110;2024-02-26T14:53:07;1.85;;;1.50;;
10677;SDS011;5387;48.722;9.110;2024-02-26T14:55:35;9.70;;;1.40;;
10677;SDS011;5387;48.722;9.110;2024-02-26T14:58:03;1.90;;;1.30;;
10677;SDS011;5387;48.722;9.110;2024-02-26T15:00:30;5.60;;;1.08;;
10677;SDS011;5387;48.722;9.110;2024-02-26T15:02:58;4.43;;;1.10;;
10677;SDS011;5387;48.722;9.110;2024-02-26T15:05:25;1.60;;;1.27;;